Terminal Aerodrome Forecast
Issued by NWS Wilmington, OH

Current Version | Previous Version | Graphics & Text | Print | Product List | Glossary On
Versions: 1 2 3 4 5 6 7 8 9 10 11 12 13 14 15 16 17 18 19 20 21 22 23 24 25 26 27 28 29
000
FTUS41 KILN 180956 AAB
TAFCVG
TAF AMD
KCVG 180956Z 1810/1912 04009KT P6SM OVC027
     FM181200 07011KT P6SM VCSH OVC025
     FM181400 08012KT P6SM VCSH OVC015
     FM181800 08011KT 5SM -SHRA OVC025
     FM190100 09006KT P6SM OVC050
     FM191000 VRB03KT P6SM BKN025=

USA.gov is the U.S. government's official web portal to all federal, state and local government web resources and services.